Aeroporto :
LOGIN :

Iscrizione | Disclaimer

   EN    FR    IT 

 










Sommario :    VFR   VFR Marginale   IFR   IFR Intensivo   IFR Molto Intensivo
Visibilità : 
Base nubi : 
>= 8 km
>= 3000ft
5 / 8 km
1000 / 3000 ft
1500m / 5 km
500 / 1000 ft
800 / 1500m
200 / 500 ft
< 800m
< 200 ft
Simboli :   Temporali  Nebbia  Neve Forte  Precipitazioni Forti  Vento > 20 kt
SIGMETs :   Varie  Temporali  Ghiacco  Turbolenza  Onda orograficha  Ceneri Vulcaniche






- Altitudine del aeroporto : 353 ft
- Codice IATA : CND


LRCK - Constanta

ULTIMO METAR :
  • 171600Z 16012KT CAVOK 05/03 Q1025 NOSIG

METARs OBSOLETI :
  • 171530Z 16010KT CAVOK 06/04 Q1025 NOSIG
  • 171500Z 16012KT CAVOK 08/04 Q1025 NOSIG
  • 171430Z 16013KT CAVOK 09/04 Q1025 NOSIG
  • 171400Z 16013KT CAVOK 10/05 Q1025 NOSIG
  • 171330Z 16013KT CAVOK 11/05 Q1025 NOSIG

TAF TAF LRCK
Valido dal 17 a 12 ore il 18 a 12 ore UTC


171100Z 1712/1812 19010KT CAVOK
PROB40
TEMPO 1801/1806 3000 BR



MetMap, La meteo Aeronautica in un colpo d'occhio ! - Copyright ORBIFLY Dicembre 2007 - Disclaimer

ORBIFLY MET'MAP TEAM :

Programmazione e sviluppo : Alexandra Zaïnal
Concezione : Baudouin d'Aumeries
Aiuto per la programmazione : Marc-Olivier Méhu
Supporto tecnico e logistico : Manuel Goepfert
Aiuto per la traduzione : Arnaldo La Scala

Contatto : metmap@orbifly.com




FONTI E CREDITI :

   NOAA